TimeAKDT,TemperatureF,Dew PointF,Humidity,Sea Level PressureIn,VisibilityMPH,Wind Direction,Wind SpeedMPH,Gust SpeedMPH,PrecipitationIn,Events,Conditions,WindDirDegrees,DateUTC
12:01 AM,53.6,51.8,94,29.83,10.0,ESE,4.6,-,N/A,,Mostly Cloudy,120,2013-09-18 08:01:00
12:53 AM,52.0,52.0,100,29.83,10.0,SE,3.5,-,N/A,,Mostly Cloudy,130,2013-09-18 08:53:00
1:02 AM,53.6,51.8,94,29.83,10.0,SE,4.6,-,N/A,,Scattered Clouds,130,2013-09-18 09:02:00
1:15 AM,53.6,51.8,94,29.84,10.0,Calm,Calm,-,N/A,,Mostly Cloudy,0,2013-09-18 09:15:00
1:42 AM,51.8,51.8,100,29.84,10.0,ESE,3.5,-,N/A,,Partly Cloudy,120,2013-09-18 09:42:00
1:53 AM,51.1,51.1,100,29.84,10.0,Calm,Calm,-,N/A,,Partly Cloudy,0,2013-09-18 09:53:00
2:53 AM,48.9,48.9,100,29.85,10.0,Calm,Calm,-,N/A,,Mostly Cloudy,0,2013-09-18 10:53:00
3:53 AM,51.1,50.0,96,29.86,10.0,SE,3.5,-,N/A,,Mostly Cloudy,140,2013-09-18 11:53:00
4:20 AM,51.8,51.8,100,29.85,10.0,SE,3.5,-,N/A,,Mostly Cloudy,140,2013-09-18 12:20:00
4:34 AM,51.8,51.8,100,29.85,10.0,SE,4.6,-,N/A,,Mostly Cloudy,130,2013-09-18 12:34:00
4:51 AM,51.8,51.8,100,29.85,10.0,SE,3.5,-,N/A,,Mostly Cloudy,130,2013-09-18 12:51:00
4:53 AM,52.0,51.1,97,29.86,10.0,SE,3.5,-,N/A,,Scattered Clouds,130,2013-09-18 12:53:00
5:02 AM,51.8,51.8,100,29.85,10.0,SE,3.5,-,N/A,,Mostly Cloudy,140,2013-09-18 13:02:00
5:51 AM,51.8,51.8,100,29.86,10.0,SE,5.8,-,N/A,,Mostly Cloudy,140,2013-09-18 13:51:00
5:53 AM,52.0,51.1,97,29.86,10.0,SE,5.8,-,N/A,,Mostly Cloudy,140,2013-09-18 13:53:00
6:34 AM,51.8,51.8,100,29.86,10.0,SE,5.8,-,N/A,,Scattered Clouds,130,2013-09-18 14:34:00
6:44 AM,51.8,51.8,100,29.86,10.0,SE,8.1,-,N/A,,Mostly Cloudy,130,2013-09-18 14:44:00
6:51 AM,51.8,51.8,100,29.86,10.0,SE,6.9,-,N/A,,Mostly Cloudy,130,2013-09-18 14:51:00
6:53 AM,52.0,51.1,97,29.87,10.0,SE,8.1,-,N/A,,Mostly Cloudy,130,2013-09-18 14:53:00
7:51 AM,53.6,51.8,94,29.87,10.0,SE,9.2,-,N/A,,Overcast,130,2013-09-18 15:51:00
7:53 AM,53.1,51.1,93,29.88,10.0,ESE,10.4,-,N/A,,Overcast,120,2013-09-18 15:53:00
8:23 AM,53.6,51.8,94,29.87,10.0,ESE,10.4,-,N/A,,Scattered Clouds,120,2013-09-18 16:23:00
8:31 AM,53.6,51.8,94,29.88,10.0,ESE,9.2,-,N/A,,Mostly Cloudy,120,2013-09-18 16:31:00
8:53 AM,54.0,51.1,90,29.88,10.0,ESE,9.2,-,N/A,,Overcast,120,2013-09-18 16:53:00
9:53 AM,55.9,50.0,80,29.89,10.0,ESE,9.2,-,N/A,,Mostly Cloudy,120,2013-09-18 17:53:00
10:53 AM,57.0,51.1,81,29.89,10.0,SE,11.5,-,N/A,,Mostly Cloudy,130,2013-09-18 18:53:00
11:50 AM,57.2,50.0,77,29.88,10.0,SE,9.2,-,N/A,,Overcast,130,2013-09-18 19:50:00
11:53 AM,57.0,50.0,77,29.89,10.0,SE,8.1,-,N/A,,Overcast,140,2013-09-18 19:53:00
12:08 PM,57.2,51.8,82,29.88,10.0,SSE,6.9,-,N/A,,Overcast,150,2013-09-18 20:08:00
12:53 PM,57.9,50.0,75,29.88,10.0,SE,8.1,-,N/A,,Overcast,140,2013-09-18 20:53:00
1:53 PM,59.0,50.0,72,29.87,10.0,SE,10.4,-,N/A,,Overcast,130,2013-09-18 21:53:00
2:51 PM,60.8,50.0,68,29.86,10.0,SE,8.1,-,N/A,,Overcast,130,2013-09-18 22:51:00
2:53 PM,60.1,50.0,69,29.86,10.0,SE,8.1,-,N/A,,Overcast,130,2013-09-18 22:53:00
3:25 PM,59.0,50.0,72,29.85,10.0,SE,8.1,-,N/A,,Overcast,140,2013-09-18 23:25:00
3:53 PM,59.0,50.0,72,29.85,10.0,SE,8.1,-,N/A,,Overcast,130,2013-09-18 23:53:00
5:16 PM,57.2,50.0,77,29.82,10.0,ESE,8.1,-,N/A,,Overcast,120,2013-09-19 01:16:00
5:26 PM,57.2,50.0,77,29.82,10.0,SE,10.4,17.3,N/A,,Overcast,130,2013-09-19 01:26:00
5:34 PM,57.2,50.0,77,29.82,10.0,ESE,10.4,-,0.00,Rain,Light Rain,120,2013-09-19 01:34:00
5:51 PM,55.4,51.8,88,29.82,10.0,ESE,6.9,-,0.00,Rain,Light Rain,120,2013-09-19 01:51:00
5:53 PM,55.9,51.1,84,29.82,10.0,ESE,5.8,-,0.00,Rain,Light Rain,120,2013-09-19 01:53:00
6:53 PM,54.0,52.0,93,29.81,10.0,ESE,12.7,18.4,0.04,Rain,Light Rain,110,2013-09-19 02:53:00
7:38 PM,55.4,51.8,88,29.80,10.0,ESE,12.7,19.6,0.01,Rain,Light Rain,120,2013-09-19 03:38:00
7:51 PM,55.4,51.8,88,29.79,8.0,SE,11.5,-,0.02,Rain,Rain,130,2013-09-19 03:51:00
7:53 PM,55.0,53.1,93,29.80,7.0,ESE,11.5,-,0.02,Rain,Rain,120,2013-09-19 03:53:00
8:14 PM,55.4,53.6,94,29.78,10.0,ESE,12.7,-,0.03,Rain,Light Rain,120,2013-09-19 04:14:00
8:24 PM,55.4,51.8,88,29.78,10.0,ESE,11.5,20.7,0.03,Rain,Light Rain,120,2013-09-19 04:24:00
8:51 PM,55.4,51.8,88,29.77,10.0,ESE,11.5,19.6,0.05,Rain,Light Rain,120,2013-09-19 04:51:00
8:53 PM,55.0,51.1,86,29.77,10.0,ESE,12.7,21.9,0.05,Rain,Light Rain,120,2013-09-19 04:53:00
9:08 PM,55.4,51.8,88,29.76,10.0,ESE,12.7,23.0,0.00,Rain,Light Rain,120,2013-09-19 05:08:00
9:28 PM,55.4,51.8,88,29.76,10.0,ESE,12.7,24.2,0.00,Rain,Light Rain,120,2013-09-19 05:28:00
9:53 PM,55.0,52.0,89,29.76,10.0,SE,13.8,21.9,0.01,Rain,Light Rain,130,2013-09-19 05:53:00
10:12 PM,53.6,51.8,94,29.76,10.0,SE,15.0,21.9,0.02,Rain,Light Rain,130,2013-09-19 06:12:00
10:53 PM,54.0,50.0,86,29.73,10.0,ESE,13.8,24.2,0.05,Rain,Light Rain,110,2013-09-19 06:53:00
11:53 PM,55.0,48.9,80,29.69,10.0,ESE,15.0,26.5,0.03,Rain,Light Rain,110,2013-09-19 07:53:00